Weather forecast for Mishelevka (Мишелевка)

Russia, 412 m
N52.890, E103.197


Sounding

Red line — air temperature ˚C.
Blue line — thermal bubble temperature ˚C.
Green line — dew point temperature ˚C.
Wind speed is in meters per second.

Table forecast

GFS 0.25˚ model

temp. wind gust humid. clouds prec. press. hpbl
Tue17 00:00 19 349.0 n 6 12 31 100 0.0 1008 310
03:00 16 313.0 nw 6 12 51 100 0.0 1011 451
06:00 13 279.0 w 5 11 85 100 2.0 1011 453
09:00 15 302.0 wnw 6 9 69 79 2.5 1012 731
12:00 20 329.0 nnw 7 10 43 35 0.1 1011 2036
15:00 19 352.0 n 6 7 45 100 0.1 1011 1112
18:00 20 355.0 n 4 7 38 100 0.0 1010 549
21:00 18 310.0 nw 3 6 46 35 0.0 1011 140
 
Wed18 00:00 17 268.0 w 3 5 48 27 0.0 1013 79
03:00 13 285.0 wnw 2 2 59 5 0.0 1013 22
06:00 12 293.0 wnw 2 2 63 6 0.0 1014 12
09:00 16 279.0 w 1 2 51 31 0.0 1014 247
12:00 22 252.0 wsw 2 2 37 33 0.0 1013 1200
15:00 25 291.0 wnw 1 2 29 5 0.0 1012 2302
18:00 25 263.0 w 0 2 26 5 0.0 1011 2439
21:00 23 140.0 se 2 2 34 5 0.0 1011 14
 
Thu19 00:00 18 165.0 sse 2 2 41 5 0.0 1012 15
03:00 16 171.0 s 2 2 49 5 0.0 1012 18
06:00 14 159.0 sse 2 2 57 5 0.0 1012 25
09:00 18 281.0 w 3 4 47 25 0.0 1013 347
12:00 23 339.0 nnw 3 5 35 66 0.0 1013 1039
15:00 26 335.0 nnw 4 4 31 29 0.0 1011 1883
18:00 26 2.0 n 4 4 30 100 0.0 1010 1980
21:00 23 42.0 ne 3 4 41 94 0.0 1010 79
 
Fri20 00:00 18 147.0 sse 1 1 55 100 0.2 1011 11
03:00 16 174.0 s 1 1 64 78 0.4 1010 11
06:00 14 137.0 se 2 2 70 91 0.0 1010 11
09:00 19 149.0 sse 3 4 56 52 0.0 1010 244
12:00 24 189.0 s 1 1 38 100 0.0 1009 825
15:00 27 319.0 nw 4 4 32 40 0.0 1008 1764
18:00 27 322.0 nw 8 6 32 69 0.0 1008 2436
21:00 18 293.0 wnw 8 13 71 100 0.0 1010 375
 
Sat21 00:00 17 284.0 wnw 5 9 75 100 0.0 1012 228
03:00 15 295.0 wnw 2 2 83 100 0.3 1012 26
06:00 15 299.0 wnw 2 2 86 100 0.3 1012 42
09:00 17 329.0 nnw 2 3 68 74 0.6 1013 321
12:00 21 309.0 nw 3 2 49 100 0.0 1012 1248
15:00 23 275.0 w 3 3 43 100 0.0 1010 1773
18:00 25 307.0 nw 3 4 39 6 0.0 1008 1795
21:00 22 15.0 nne 3 5 50 56 0.0 1008 119
 

0.013 s